createdAt,value
2018-08-13T00:01:24.563Z,61.93
2018-08-13T00:03:54.319Z,62.60
2018-08-13T00:06:24.077Z,62.36
2018-08-13T00:08:53.689Z,62.23
2018-08-13T00:11:23.309Z,62.84
2018-08-13T00:13:53.347Z,63.15
2018-08-13T00:16:23.422Z,62.53
2018-08-13T00:18:52.965Z,62.99
2018-08-13T00:21:23.195Z,62.94
2018-08-13T00:23:53.486Z,62.82
2018-08-13T00:26:23.091Z,62.47
2018-08-13T00:28:52.800Z,63.31
2018-08-13T00:31:22.727Z,63.41
2018-08-13T00:33:52.467Z,63.63
2018-08-13T00:36:22.238Z,64.10
2018-08-13T00:38:51.846Z,64.11
2018-08-13T00:41:22.223Z,63.53
2018-08-13T00:43:52.103Z,64.12
2018-08-13T00:46:22.114Z,64.44
2018-08-13T00:48:52.150Z,64.21
2018-08-13T00:51:22.142Z,64.78
2018-08-13T00:53:52.259Z,64.61
2018-08-13T00:56:21.962Z,64.86
2018-08-13T00:58:52.096Z,65.43
2018-08-13T01:01:21.627Z,64.70
2018-08-13T01:03:51.349Z,64.68
2018-08-13T01:06:21.142Z,65.12
2018-08-13T01:08:51.211Z,65.82
2018-08-13T01:11:20.900Z,64.79
2018-08-13T01:13:50.610Z,64.02
2018-08-13T01:16:20.368Z,64.66
2018-08-13T01:18:50.411Z,65.17
2018-08-13T01:21:20.476Z,64.96
2018-08-13T01:23:50.107Z,64.49
2018-08-13T01:26:20.135Z,64.53
2018-08-13T01:28:49.814Z,64.24
2018-08-13T01:31:19.448Z,65.17
2018-08-13T01:33:49.452Z,65.11
2018-08-13T01:36:19.883Z,65.41
2018-08-13T01:38:49.479Z,64.97
2018-08-13T01:41:19.377Z,65.28
2018-08-13T01:43:49.615Z,64.98
2018-08-13T01:46:19.708Z,65.82
2018-08-13T01:48:49.630Z,66.22
2018-08-13T01:51:19.295Z,65.54
2018-08-13T01:53:48.954Z,65.95
2018-08-13T01:56:19.023Z,64.71
2018-08-13T01:58:48.804Z,65.72
2018-08-13T02:01:18.583Z,65.87
2018-08-13T02:03:48.836Z,66.44
2018-08-13T02:06:18.627Z,67.06
2018-08-13T02:08:48.670Z,65.85
2018-08-13T02:11:18.806Z,65.88
2018-08-13T02:13:48.370Z,66.47
2018-08-13T02:16:18.267Z,67.02
2018-08-13T02:18:47.890Z,66.74
2018-08-13T02:21:17.924Z,65.39
2018-08-13T02:23:47.522Z,66.48
2018-08-13T02:26:17.143Z,67.01
2018-08-13T02:28:46.869Z,67.93
2018-08-13T02:31:16.851Z,67.31
2018-08-13T02:33:46.992Z,67.42
2018-08-13T02:36:16.782Z,67.35
2018-08-13T02:38:46.566Z,67.24
2018-08-13T02:41:16.475Z,67.45
2018-08-13T02:43:46.107Z,66.84
2018-08-13T02:46:15.895Z,66.61
2018-08-13T02:48:45.758Z,66.35
2018-08-13T02:51:15.431Z,66.64
2018-08-13T02:53:45.467Z,67.17
2018-08-13T02:56:15.259Z,67.12
2018-08-13T02:58:44.888Z,67.49
2018-08-13T03:01:14.521Z,66.60
2018-08-13T03:03:44.419Z,67.39
2018-08-13T03:06:13.984Z,67.09
2018-08-13T03:08:44.202Z,66.94
2018-08-13T03:11:14.635Z,67.08
2018-08-13T03:13:44.347Z,66.67
2018-08-13T03:16:14.299Z,66.89
2018-08-13T03:18:44.343Z,66.69
2018-08-13T03:21:14.120Z,67.92
2018-08-13T03:23:43.903Z,68.54
2018-08-13T03:26:13.483Z,68.80
2018-08-13T03:28:43.228Z,68.63
2018-08-13T03:31:13.167Z,67.23
2018-08-13T03:33:43.408Z,68.13
2018-08-13T03:36:12.999Z,67.46
2018-08-13T03:38:42.791Z,68.39
2018-08-13T03:41:12.799Z,68.54
2018-08-13T03:43:42.433Z,68.06
2018-08-13T03:46:12.152Z,68.67
2018-08-13T03:48:41.726Z,68.67
2018-08-13T03:51:12.156Z,68.60
2018-08-13T03:53:41.873Z,68.37
2018-08-13T03:56:11.868Z,69.41
2018-08-13T03:58:41.511Z,69.04
2018-08-13T04:01:11.386Z,68.82
2018-08-13T04:03:41.507Z,69.47
2018-08-13T04:06:11.252Z,68.53
2018-08-13T04:08:41.079Z,68.21
2018-08-13T04:11:10.863Z,68.87
2018-08-13T04:13:40.997Z,69.12
2018-08-13T04:16:10.962Z,68.06
2018-08-13T04:18:40.631Z,68.01
2018-08-13T04:21:10.578Z,68.65
2018-08-13T04:23:40.940Z,68.12
2018-08-13T04:26:10.923Z,67.86
2018-08-13T04:28:40.759Z,68.05
2018-08-13T04:31:10.558Z,67.85
2018-08-13T04:33:40.195Z,67.87
2018-08-13T04:36:09.858Z,67.68
2018-08-13T04:38:39.923Z,67.61
2018-08-13T04:41:09.888Z,67.89
2018-08-13T04:43:39.606Z,68.63
2018-08-13T04:46:09.805Z,66.94
2018-08-13T04:48:39.574Z,66.97
2018-08-13T04:51:09.897Z,67.07
2018-08-13T04:53:39.531Z,66.98
2018-08-13T04:56:09.295Z,67.80
2018-08-13T04:58:39.139Z,68.11
2018-08-13T05:01:09.240Z,67.35
2018-08-13T05:03:39.340Z,66.74
2018-08-13T05:06:09.454Z,66.94
2018-08-13T05:08:39.175Z,66.63
2018-08-13T05:11:08.791Z,65.62
2018-08-13T05:13:38.373Z,66.21
2018-08-13T05:16:07.965Z,66.61
2018-08-13T05:18:37.580Z,66.18
2018-08-13T05:21:07.982Z,65.83
2018-08-13T05:23:37.529Z,65.16
2018-08-13T05:26:07.998Z,65.26
2018-08-13T05:28:37.790Z,64.18
2018-08-13T05:31:07.594Z,64.80
2018-08-13T05:33:37.270Z,62.20
2018-08-13T05:36:07.512Z,61.09
2018-08-13T05:38:37.720Z,60.13
2018-08-13T05:41:07.447Z,59.21
2018-08-13T05:43:37.164Z,58.41
2018-08-13T05:46:07.092Z,56.99
2018-08-13T05:48:37.200Z,56.24
2018-08-13T05:51:07.282Z,55.25
2018-08-13T05:53:36.913Z,55.26
2018-08-13T05:56:06.730Z,53.22
2018-08-13T05:58:36.548Z,51.88
2018-08-13T06:01:06.366Z,51.59
2018-08-13T06:03:36.160Z,52.58
2018-08-13T06:06:06.269Z,51.84
2018-08-13T06:08:36.035Z,50.74
2018-08-13T06:11:05.702Z,50.65
2018-08-13T06:13:35.744Z,51.28
2018-08-13T06:16:05.430Z,51.75
2018-08-13T06:18:35.035Z,51.12
2018-08-13T06:21:05.431Z,52.00
2018-08-13T06:23:36.930Z,51.21
2018-08-13T06:26:06.903Z,51.69
2018-08-13T06:28:36.731Z,51.41
2018-08-13T06:31:06.442Z,51.78
2018-08-13T06:33:36.167Z,52.82
2018-08-13T06:36:06.407Z,51.61
2018-08-13T06:38:36.378Z,50.38
2018-08-13T06:41:06.335Z,49.27
2018-08-13T06:43:36.171Z,49.10
2018-08-13T06:46:06.224Z,48.38
2018-08-13T06:48:36.055Z,49.43
2018-08-13T06:51:05.781Z,49.91
2018-08-13T06:53:37.982Z,50.67
2018-08-13T06:56:07.659Z,52.00
2018-08-13T06:58:37.854Z,51.86
2018-08-13T07:01:07.659Z,50.69
2018-08-13T07:03:37.417Z,52.47
2018-08-13T07:06:07.495Z,52.09
2018-08-13T07:08:37.635Z,51.60
2018-08-13T07:11:07.214Z,52.47
2018-08-13T07:13:36.923Z,52.30
2018-08-13T07:16:06.559Z,51.64
2018-08-13T07:18:36.135Z,51.63
2018-08-13T07:21:05.978Z,53.07
2018-08-13T07:23:35.478Z,52.33
2018-08-13T07:26:05.462Z,53.34
2018-08-13T07:28:35.071Z,53.73
2018-08-13T07:31:04.656Z,55.79
2018-08-13T07:33:34.267Z,56.70
2018-08-13T07:36:04.225Z,54.89
2018-08-13T07:38:34.030Z,55.38
2018-08-13T07:41:03.607Z,55.20
2018-08-13T07:43:33.582Z,55.19
2018-08-13T07:46:03.453Z,56.04
2018-08-13T07:48:33.607Z,55.05
2018-08-13T07:51:03.114Z,56.21
2018-08-13T07:53:33.061Z,54.91
2018-08-13T07:56:03.035Z,54.32
2018-08-13T07:58:32.610Z,53.42
2018-08-13T08:01:02.223Z,53.12
2018-08-13T08:03:32.517Z,53.13
2018-08-13T08:06:02.143Z,52.25
2018-08-13T08:08:31.714Z,52.46
2018-08-13T08:11:01.284Z,51.94
2018-08-13T08:13:30.851Z,52.23
2018-08-13T08:16:00.818Z,51.33
2018-08-13T08:18:31.020Z,52.07
2018-08-13T08:21:00.852Z,50.76
2018-08-13T08:23:30.695Z,49.32
2018-08-13T08:26:00.225Z,48.84
2018-08-13T08:28:30.196Z,48.38
2018-08-13T08:31:00.061Z,49.87
2018-08-13T08:33:30.542Z,50.15
2018-08-13T08:36:00.055Z,48.94
2018-08-13T08:38:29.983Z,49.68
2018-08-13T08:40:59.886Z,50.51
2018-08-13T08:43:30.105Z,50.65
2018-08-13T08:46:00.346Z,51.70
2018-08-13T08:48:30.423Z,51.91
2018-08-13T08:50:59.970Z,53.40
2018-08-13T08:53:29.619Z,54.35
2018-08-13T08:55:59.604Z,54.97
2018-08-13T08:58:29.107Z,56.29
2018-08-13T09:00:58.906Z,56.36
2018-08-13T09:03:28.479Z,60.30
2018-08-13T09:05:58.461Z,63.22
2018-08-13T09:08:28.530Z,65.43
2018-08-13T09:10:58.167Z,64.62
2018-08-13T09:13:27.891Z,64.56
2018-08-13T09:15:57.834Z,65.71
2018-08-13T09:18:44.307Z,66.25
2018-08-13T09:21:30.003Z,67.10
2018-08-13T09:24:17.206Z,67.25
2018-08-13T09:27:03.593Z,67.65
2018-08-13T09:29:50.199Z,68.00
2018-08-13T09:32:36.767Z,67.96
2018-08-13T09:35:21.602Z,68.24
2018-08-13T09:37:51.779Z,69.03
2018-08-13T09:40:21.514Z,66.80
2018-08-13T09:42:51.433Z,68.23
2018-08-13T09:45:21.871Z,66.16
2018-08-13T09:47:51.663Z,67.10
2018-08-13T09:50:21.923Z,67.58
2018-08-13T09:52:52.162Z,67.14
2018-08-13T09:55:21.940Z,67.81
2018-08-13T09:57:52.283Z,66.61
2018-08-13T10:00:27.631Z,67.78
2018-08-13T10:02:57.393Z,67.66
2018-08-13T10:05:27.943Z,66.40
2018-08-13T10:07:58.224Z,65.98
2018-08-13T10:10:28.523Z,65.44
2018-08-13T10:12:58.495Z,65.27
2018-08-13T10:15:28.310Z,66.74
2018-08-13T10:17:58.036Z,64.87
2018-08-13T10:20:27.906Z,64.16
2018-08-13T10:22:57.623Z,66.82
2018-08-13T10:25:27.659Z,66.75
2018-08-13T10:27:58.051Z,64.34
2018-08-13T10:30:27.827Z,63.50
2018-08-13T10:32:57.812Z,62.15
2018-08-13T10:35:27.419Z,62.79
2018-08-13T10:37:57.194Z,61.25
2018-08-13T10:40:27.015Z,63.05
2018-08-13T10:42:56.919Z,63.04
2018-08-13T10:45:26.645Z,63.02
2018-08-13T10:47:56.426Z,62.88
2018-08-13T10:50:26.587Z,64.44
2018-08-13T10:52:56.254Z,64.44
2018-08-13T10:55:26.016Z,65.02
2018-08-13T10:57:55.845Z,66.37
2018-08-13T11:00:25.707Z,65.19
2018-08-13T11:02:55.567Z,66.26
2018-08-13T11:05:25.465Z,65.17
2018-08-13T11:07:55.202Z,65.92
2018-08-13T11:10:25.568Z,65.10
2018-08-13T11:12:55.402Z,65.90
2018-08-13T11:15:25.602Z,66.74
2018-08-13T11:17:55.223Z,67.09
2018-08-13T11:20:25.326Z,66.43
2018-08-13T11:22:55.182Z,66.42
2018-08-13T11:25:25.232Z,67.64
2018-08-13T11:27:55.178Z,68.45
2018-08-13T11:30:25.007Z,68.39
2018-08-13T11:32:55.072Z,66.28
2018-08-13T11:35:25.267Z,66.84
2018-08-13T11:37:55.303Z,68.29
2018-08-13T11:40:24.959Z,67.57
2018-08-13T11:42:54.992Z,66.97
2018-08-13T11:45:24.655Z,67.98
2018-08-13T11:47:54.657Z,68.14
2018-08-13T11:50:24.467Z,67.69
2018-08-13T11:52:54.203Z,67.69
2018-08-13T11:55:23.991Z,68.67
2018-08-13T11:57:53.654Z,66.90
2018-08-13T12:00:23.319Z,67.05
2018-08-13T12:02:53.398Z,66.77
2018-08-13T12:05:23.082Z,67.42
2018-08-13T12:07:53.238Z,67.14
2018-08-13T12:10:23.284Z,66.15
2018-08-13T12:12:52.961Z,65.66
2018-08-13T12:15:23.095Z,66.24
2018-08-13T12:17:53.266Z,67.59
2018-08-13T12:20:23.081Z,66.72
2018-08-13T12:22:53.131Z,66.85
2018-08-13T12:25:25.510Z,66.17
2018-08-13T12:27:55.724Z,65.63
2018-08-13T12:30:25.689Z,66.30
2018-08-13T12:32:55.749Z,66.37
2018-08-13T12:35:25.727Z,67.21
2018-08-13T12:37:55.507Z,67.09
2018-08-13T12:40:25.148Z,65.88
2018-08-13T12:42:54.925Z,66.58
2018-08-13T12:45:24.875Z,66.02
2018-08-13T12:47:54.559Z,65.35
2018-08-13T12:50:24.605Z,66.48
2018-08-13T12:52:54.572Z,66.73
2018-08-13T12:55:24.339Z,66.99
2018-08-13T12:57:54.123Z,67.18
2018-08-13T13:00:23.940Z,68.10
2018-08-13T13:02:53.664Z,67.56
2018-08-13T13:05:23.350Z,67.58
2018-08-13T13:07:53.199Z,67.84
2018-08-13T13:10:22.974Z,68.21
2018-08-13T13:12:52.754Z,68.39
2018-08-13T13:15:22.511Z,70.23
2018-08-13T13:17:52.205Z,70.31
2018-08-13T13:20:23.340Z,69.54
2018-08-13T13:22:53.486Z,71.30
2018-08-13T13:25:23.306Z,72.17
2018-08-13T13:27:53.181Z,71.73
2018-08-13T13:30:22.807Z,71.62
2018-08-13T13:32:52.536Z,70.27
2018-08-13T13:35:22.950Z,72.06
2018-08-13T13:37:52.639Z,72.68
2018-08-13T13:40:22.729Z,72.85
2018-08-13T13:42:52.454Z,71.26
2018-08-13T13:45:22.041Z,72.03
2018-08-13T13:47:51.576Z,70.59
2018-08-13T13:50:21.166Z,70.40
2018-08-13T13:52:50.703Z,69.86
2018-08-13T13:55:20.263Z,67.57
2018-08-13T13:57:50.071Z,68.09
2018-08-13T14:00:21.249Z,67.09
2018-08-13T14:02:52.227Z,65.34
2018-08-13T14:05:22.450Z,64.85
2018-08-13T14:07:52.019Z,62.73
2018-08-13T14:10:22.871Z,63.07
2018-08-13T14:12:52.683Z,64.36
2018-08-13T14:15:23.304Z,63.32
2018-08-13T14:17:53.187Z,62.80
2018-08-13T14:20:22.902Z,63.73
2018-08-13T14:22:52.703Z,61.05
2018-08-13T14:25:22.347Z,62.57
2018-08-13T14:27:52.132Z,61.74
2018-08-13T14:30:26.385Z,61.41
2018-08-13T14:32:56.114Z,59.96
2018-08-13T14:35:26.147Z,59.47
2018-08-13T14:37:55.811Z,59.89
2018-08-13T14:40:25.934Z,59.80
2018-08-13T14:42:56.399Z,59.45
2018-08-13T14:45:26.359Z,59.97
2018-08-13T14:47:56.479Z,60.49
2018-08-13T14:50:26.094Z,60.29
2018-08-13T14:52:55.758Z,60.86
2018-08-13T14:55:25.420Z,60.81
2018-08-13T14:57:55.703Z,60.66
2018-08-13T15:00:32.357Z,60.27
2018-08-13T15:03:02.139Z,63.14
2018-08-13T15:05:31.776Z,63.09
2018-08-13T15:08:01.628Z,64.11
2018-08-13T15:10:31.456Z,65.78
2018-08-13T15:13:01.308Z,67.38
2018-08-13T15:15:31.512Z,66.61
2018-08-13T15:18:01.304Z,66.96
2018-08-13T15:20:32.296Z,68.46
2018-08-13T15:23:01.894Z,69.24
2018-08-13T15:25:31.668Z,70.01
2018-08-13T15:28:01.519Z,70.37
2018-08-13T15:30:31.363Z,69.88
2018-08-13T15:33:01.506Z,69.56
2018-08-13T15:35:32.273Z,69.91
2018-08-13T15:38:01.939Z,69.16
2018-08-13T15:40:31.951Z,69.03
2018-08-13T15:43:02.311Z,68.70
2018-08-13T15:45:32.283Z,69.42
2018-08-13T15:48:02.207Z,66.72
2018-08-13T15:50:32.012Z,67.13
2018-08-13T15:53:01.759Z,69.85
2018-08-13T15:55:31.435Z,69.01
2018-08-13T15:58:01.312Z,67.36
2018-08-13T16:00:30.964Z,66.71
2018-08-13T16:03:00.574Z,66.89
2018-08-13T16:05:30.353Z,66.21
2018-08-13T16:08:00.490Z,67.01
2018-08-13T16:10:30.423Z,66.45
2018-08-13T16:13:00.546Z,66.60
2018-08-13T16:15:30.667Z,67.04
2018-08-13T16:18:00.501Z,68.41
2018-08-13T16:20:30.260Z,68.19
2018-08-13T16:22:59.879Z,67.56
2018-08-13T16:25:29.695Z,68.24
2018-08-13T16:27:59.511Z,67.94
2018-08-13T16:30:31.726Z,67.74
2018-08-13T16:33:01.516Z,67.57
2018-08-13T16:35:31.298Z,68.11
2018-08-13T16:38:01.394Z,68.61
2018-08-13T16:40:31.408Z,70.39
2018-08-13T16:43:01.532Z,70.60
2018-08-13T16:45:31.262Z,70.77
2018-08-13T16:48:00.979Z,69.88
2018-08-13T16:50:33.275Z,69.51
2018-08-13T16:53:03.379Z,70.03
2018-08-13T16:55:33.985Z,70.74
2018-08-13T16:58:04.384Z,70.81
2018-08-13T17:00:34.680Z,70.68
2018-08-13T17:03:04.880Z,72.33
2018-08-13T17:05:35.546Z,73.78
2018-08-13T17:08:05.503Z,74.80
2018-08-13T17:10:35.411Z,75.74
2018-08-13T17:13:05.328Z,75.67
2018-08-13T17:15:35.210Z,75.91
2018-08-13T17:18:05.616Z,75.72
2018-08-13T17:20:39.589Z,75.79
2018-08-13T17:23:09.528Z,77.12
2018-08-13T17:25:39.664Z,76.44
2018-08-13T17:28:09.769Z,75.77
2018-08-13T17:30:39.995Z,75.20
2018-08-13T17:33:09.891Z,75.63
2018-08-13T17:35:39.617Z,75.21
2018-08-13T17:38:11.171Z,74.09
2018-08-13T17:40:40.936Z,75.76
2018-08-13T17:43:12.093Z,76.24
2018-08-13T17:45:41.771Z,75.21
2018-08-13T17:48:12.114Z,74.43
2018-08-13T17:50:42.011Z,74.23
2018-08-13T17:53:12.221Z,73.72
2018-08-13T17:55:41.816Z,73.87
2018-08-13T17:58:11.772Z,73.27
2018-08-13T18:00:41.576Z,74.60
2018-08-13T18:03:11.325Z,74.14
2018-08-13T18:05:41.278Z,75.04
2018-08-13T18:08:11.340Z,75.24
2018-08-13T18:10:41.933Z,74.82
2018-08-13T18:13:11.917Z,76.05
2018-08-13T18:15:41.658Z,75.64
2018-08-13T18:18:11.619Z,75.20
2018-08-13T18:20:43.455Z,74.77
2018-08-13T18:23:13.459Z,75.79
2018-08-13T18:25:44.004Z,76.29
2018-08-13T18:28:13.736Z,76.70
2018-08-13T18:30:43.504Z,76.49
2018-08-13T18:33:13.260Z,76.04
2018-08-13T18:35:42.975Z,75.99
2018-08-13T18:38:13.358Z,77.25
2018-08-13T18:40:43.210Z,76.85
2018-08-13T18:43:13.577Z,77.10
2018-08-13T18:45:43.723Z,76.23
2018-08-13T18:48:13.269Z,76.38
2018-08-13T18:50:43.246Z,75.88
2018-08-13T18:53:13.167Z,76.75
2018-08-13T18:55:42.862Z,76.80
2018-08-13T18:58:12.544Z,76.77
2018-08-13T19:00:42.885Z,76.40
2018-08-13T19:03:12.971Z,77.02
2018-08-13T19:05:42.783Z,76.62
2018-08-13T19:08:12.678Z,76.21
2018-08-13T19:10:42.639Z,76.08
2018-08-13T19:13:12.266Z,75.94
2018-08-13T19:15:42.205Z,75.84
2018-08-13T19:18:12.052Z,75.34
2018-08-13T19:20:41.999Z,75.54
2018-08-13T19:23:11.585Z,75.50
2018-08-13T19:25:41.915Z,76.05
2018-08-13T19:28:12.019Z,75.97
2018-08-13T19:30:41.771Z,76.36
2018-08-13T19:33:11.587Z,76.69
2018-08-13T19:35:41.528Z,76.95
2018-08-13T19:38:11.197Z,76.59
2018-08-13T19:40:41.482Z,76.05
2018-08-13T19:43:11.368Z,77.45
2018-08-13T19:45:41.175Z,77.40
2018-08-13T19:48:10.958Z,77.18
2018-08-13T19:50:40.679Z,77.05
2018-08-13T19:53:10.514Z,77.52
2018-08-13T19:55:41.074Z,77.22
2018-08-13T19:58:11.263Z,77.29
2018-08-13T20:00:41.006Z,77.19
2018-08-13T20:03:14.498Z,77.81
2018-08-13T20:05:44.131Z,77.53
2018-08-13T20:08:13.867Z,78.92
2018-08-13T20:10:44.092Z,78.57
2018-08-13T20:13:13.980Z,78.53
2018-08-13T20:15:44.187Z,78.77
2018-08-13T20:18:14.331Z,78.52
2018-08-13T20:20:44.417Z,79.15
2018-08-13T20:23:14.466Z,78.79
2018-08-13T20:25:44.254Z,78.58
2018-08-13T20:28:14.189Z,79.09
2018-08-13T20:30:43.877Z,79.67
2018-08-13T20:33:14.167Z,79.49
2018-08-13T20:35:43.827Z,79.22
2018-08-13T20:38:13.650Z,79.23
2018-08-13T20:40:44.142Z,80.14
2018-08-13T20:43:13.760Z,79.91
2018-08-13T20:45:43.309Z,80.12
2018-08-13T20:48:13.042Z,79.79
2018-08-13T20:50:42.938Z,80.06
2018-08-13T20:53:12.533Z,80.26
2018-08-13T20:55:42.338Z,80.02
2018-08-13T20:58:12.492Z,79.52
2018-08-13T21:00:42.408Z,80.46
2018-08-13T21:03:12.476Z,80.67
2018-08-13T21:05:42.070Z,80.41
2018-08-13T21:08:11.687Z,80.91
2018-08-13T21:10:41.605Z,80.50
2018-08-13T21:13:11.167Z,80.84
2018-08-13T21:15:41.104Z,81.04
2018-08-13T21:18:10.783Z,81.01
2018-08-13T21:20:40.352Z,80.27
2018-08-13T21:23:09.948Z,81.20
2018-08-13T21:25:39.903Z,80.38
2018-08-13T21:28:09.644Z,80.57
2018-08-13T21:30:39.201Z,80.70
2018-08-13T21:33:09.068Z,80.65
2018-08-13T21:35:38.894Z,81.40
2018-08-13T21:38:08.530Z,81.73
2018-08-13T21:40:38.080Z,81.59
2018-08-13T21:43:07.984Z,81.32
2018-08-13T21:45:37.531Z,82.02
2018-08-13T21:48:08.192Z,82.77
2018-08-13T21:50:37.739Z,82.80
2018-08-13T21:53:07.731Z,82.71
2018-08-13T21:55:37.464Z,82.47
2018-08-13T21:58:07.498Z,82.62
2018-08-13T22:00:42.086Z,82.52
2018-08-13T22:03:11.927Z,83.14
2018-08-13T22:05:41.536Z,83.06
2018-08-13T22:08:11.127Z,82.65
2018-08-13T22:10:40.664Z,82.86
2018-08-13T22:13:10.347Z,83.07
2018-08-13T22:15:39.895Z,82.99
2018-08-13T22:18:10.101Z,83.82
2018-08-13T22:20:39.974Z,83.82
2018-08-13T22:23:09.910Z,83.25
2018-08-13T22:25:44.856Z,83.83
2018-08-13T22:28:16.792Z,83.49
2018-08-13T22:30:46.774Z,82.81
2018-08-13T22:33:16.359Z,83.36
2018-08-13T22:35:45.926Z,82.97
2018-08-13T22:38:15.486Z,83.89
2018-08-13T22:40:45.071Z,83.69
2018-08-13T22:43:14.647Z,83.53
2018-08-13T22:45:44.187Z,83.88
2018-08-13T22:48:13.726Z,83.57
2018-08-13T22:50:43.380Z,83.41
2018-08-13T22:53:12.936Z,83.91
2018-08-13T22:55:42.487Z,83.63
2018-08-13T22:58:12.022Z,83.78
2018-08-13T23:00:41.996Z,83.77
2018-08-13T23:03:11.707Z,83.48
2018-08-13T23:05:41.275Z,83.30
2018-08-13T23:08:11.403Z,83.29
2018-08-13T23:10:41.462Z,83.37
2018-08-13T23:13:17.520Z,84.11
2018-08-13T23:15:47.193Z,83.23
2018-08-13T23:18:16.737Z,83.14
2018-08-13T23:20:46.347Z,83.26
2018-08-13T23:23:15.912Z,83.72
2018-08-13T23:25:45.482Z,82.96
2018-08-13T23:28:15.058Z,83.26
2018-08-13T23:30:44.623Z,83.90
2018-08-13T23:33:14.184Z,83.67
2018-08-13T23:35:43.731Z,83.69
2018-08-13T23:38:13.647Z,84.03
2018-08-13T23:40:43.207Z,83.23
2018-08-13T23:43:13.096Z,83.41
2018-08-13T23:45:43.227Z,83.04
2018-08-13T23:48:13.091Z,82.93
2018-08-13T23:50:42.980Z,82.90
2018-08-13T23:53:13.170Z,83.42
2018-08-13T23:55:43.044Z,83.16
2018-08-13T23:58:14.262Z,83.49
